Time;durP1;ratioP1;P1;durP2;ratioP2;P2;SDS_P1;SDS_P2;PMS_P1;PMS_P2;Temp;Humidity;BMP_temperature;BMP_pressure;BME280_temperature;BME280_humidity;BME280_pressure;Samples;Min_cycle;Max_cycle;Signal;HPM_P1;HPM_P2
2022/11/03 00:02:19;;;;;;;;;;;;;;;;;;5071953;28;19905;-39
2022/11/03 00:04:45;;;;;;;;;;;;;;;;;;5072085;28;20421;-39
2022/11/03 00:07:11;;;;;;;;;;;;;;;;;;5073957;28;20000;-39
2022/11/03 00:09:37;;;;;;;;;;;;;;;;;;5092311;28;20272;-39
2022/11/03 00:12:03;;;;;;;;;;;;;;;;;;5092828;28;19912;-39
2022/11/03 00:14:29;;;;;;;;;;;;;;;;;;5092224;28;20424;-39
2022/11/03 00:16:54;;;;;;;;;;;;;;;;;;5091937;28;19908;-39
2022/11/03 00:19:20;;;;;;;;;;;;;;;;;;5091898;28;19908;-39
2022/11/03 00:21:46;;;;;;;;;;;;;;;;;;5086773;28;19999;-39
2022/11/03 00:24:12;;;;;;;;;;;;;;;;;;5071731;28;20280;-39
2022/11/03 00:26:38;;;;;;;;;;;;;;;;;;5071826;28;19909;-39
2022/11/03 00:29:04;;;;;;;;;;;;;;;;;;5072201;28;20035;-39
2022/11/03 00:31:30;;;;;;;;;;;;;;;;;;5071825;28;19905;-39
2022/11/03 00:33:56;;;;;;;;;;;;;;;;;;5074014;28;19912;-39
2022/11/03 00:36:22;;;;;;;;;;;;;;;;;;5071227;28;20409;-39
2022/11/03 00:38:47;;;;;;;;;;;;;;;;;;5070941;28;19908;-39
2022/11/03 00:41:13;;;;;;;;;;;;;;;;;;5071445;28;20348;-39
2022/11/03 00:43:39;;;;;;;;;;;;;;;;;;5071310;28;19904;-39
2022/11/03 00:46:05;;;;;;;;;;;;;;;;;;5071776;28;20429;-39
2022/11/03 00:48:32;;;;;;;;;;;;;;;;;;5071412;28;19962;-39
2022/11/03 00:50:58;;;;;;;;;;;;;;;;;;5071202;28;19904;-39
2022/11/03 00:53:24;;;;;;;;;;;;;;;;;;5071099;28;19908;-39
2022/11/03 00:55:50;;;;;;;;;;;;;;;;;;5070910;28;19916;-39
2022/11/03 06:02:46;;;;;;;;;;;;;;;;;;5077669;28;19919;-39
2022/11/03 06:05:12;;;;;;;;;;;;;;;;;;5075651;28;19990;-39
2022/11/03 06:07:38;;;;;;;;;;;;;;;;;;5063381;28;20336;-39
2022/11/03 06:10:04;;;;;;;;;;;;;;;;;;5089321;28;19904;-39
2022/11/03 06:12:30;;;;;;;;;;;;;;;;;;5089465;28;20002;-39
2022/11/03 06:14:56;;;;;;;;;;;;;;;;;;5087165;28;19908;-39
2022/11/03 06:17:22;;;;;;;;;;;;;;;;;;5087349;28;19904;-39
2022/11/03 06:19:48;;;;;;;;;;;;;;;;;;5087492;28;19916;-39
2022/11/03 06:22:14;;;;;;;;;;;;;;;;;;5083410;28;19973;-39
2022/11/03 06:24:40;;;;;;;;;;;;;;;;;;5069897;28;19944;-39
2022/11/03 06:27:06;;;;;;;;;;;;;;;;;;5088096;28;19949;-39
2022/11/03 06:29:32;;;;;;;;;;;;;;;;;;5087468;28;19915;-39
2022/11/03 06:31:58;;;;;;;;;;;;;;;;;;5082972;28;19986;-39
2022/11/03 06:34:24;;;;;;;;;;;;;;;;;;5078204;28;20121;-39
2022/11/03 06:36:49;;;;;;;;;;;;;;;;;;5075247;28;19919;-39
2022/11/03 06:39:16;;;;;;;;;;;;;;;;;;5080771;28;19935;-39
2022/11/03 06:41:42;;;;;;;;;;;;;;;;;;5092279;28;20290;-39
2022/11/03 06:44:08;;;;;;;;;;;;;;;;;;5090271;28;20470;-39
2022/11/03 06:46:33;;;;;;;;;;;;;;;;;;5088928;28;19994;-39
2022/11/03 06:48:59;;;;;;;;;;;;;;;;;;5085597;28;19915;-39
2022/11/03 06:51:26;;;;;;;;;;;;;;;;;;5086685;28;20017;-39
2022/11/03 06:53:53;;;;;;;;;;;;;;;;;;5090126;28;20375;-39
2022/11/03 06:56:19;;;;;;;;;;;;;;;;;;5089442;28;19911;-39
2022/11/03 06:58:45;;;;;;;;;;;;;;;;;;5089700;28;19918;-39
2022/11/03 07:01:11;;;;;;;;;;;;;;;;;;5071002;28;19916;-39
2022/11/03 07:03:37;;;;;;;;;;;;;;;;;;5086916;28;19916;-39
2022/11/03 07:06:03;;;;;;;;;;;;;;;;;;5083335;28;19909;-39
2022/11/03 07:08:29;;;;;;;;;;;;;;;;;;5086978;28;19991;-39
2022/11/03 07:10:55;;;;;;;;;;;;;;;;;;5089046;28;19914;-39
2022/11/03 07:13:20;;;;;;;;;;;;;;;;;;5088484;28;19904;-39
2022/11/03 07:15:46;;;;;;;;;;;;;;;;;;5088063;28;19962;-39
2022/11/03 07:18:12;;;;;;;;;;;;;;;;;;5088654;28;19912;-39
2022/11/03 07:20:38;;;;;;;;;;;;;;;;;;5090493;28;19999;-39
2022/11/03 07:23:04;;;;;;;;;;;;;;;;;;5086867;28;19904;-39
2022/11/03 07:25:30;;;;;;;;;;;;;;;;;;5079812;28;19908;-39
2022/11/03 07:27:56;;;;;;;;;;;;;;;;;;5081326;28;19904;-40
2022/11/03 07:30:23;;;;;;;;;;;;;;;;;;5083270;28;19908;-39
2022/11/03 07:32:49;;;;;;;;;;;;;;;;;;5090522;28;19916;-39
2022/11/03 07:35:15;;;;;;;;;;;;;;;;;;5098366;28;19982;-39
2022/11/03 07:37:41;;;;;;;;;;;;;;;;;;5059878;28;19912;-39
2022/11/03 07:40:07;;;;;;;;;;;;;;;;;;5070767;28;19923;-39
2022/11/03 07:42:33;;;;;;;;;;;;;;;;;;5070192;28;19931;-39
2022/11/03 07:44:59;;;;;;;;;;;;;;;;;;5075391;28;19944;-39
2022/11/03 07:47:25;;;;;;;;;;;;;;;;;;5076769;28;19915;-39
2022/11/03 07:49:51;;;;;;;;;;;;;;;;;;5079257;28;19908;-39
2022/11/03 07:52:18;;;;;;;;;;;;;;;;;;5080269;28;20321;-39
2022/11/03 07:54:44;;;;;;;;;;;;;;;;;;5075596;28;20007;-39
2022/11/03 07:57:09;;;;;;;;;;;;;;;;;;5070430;28;19905;-39
2022/11/03 07:59:35;;;;;;;;;;;;;;;;;;5079260;28;19954;-39
2022/11/03 08:02:01;;;;;;;;;;;;;;;;;;5081506;28;19954;-40
2022/11/03 08:04:27;;;;;;;;;;;;;;;;;;5087992;28;19947;-39
2022/11/03 08:06:53;;;;;;;;;;;;;;;;;;5084457;28;19958;-39
2022/11/03 08:09:20;;;;;;;;;;;;;;;;;;5084859;28;20018;-40
2022/11/03 08:11:46;;;;;;;;;;;;;;;;;;5086027;28;20395;-39
2022/11/03 08:14:12;;;;;;;;;;;;;;;;;;5089214;28;19954;-39
2022/11/03 08:16:38;;;;;;;;;;;;;;;;;;5089041;28;19943;-39
2022/11/03 08:19:03;;;;;;;;;;;;;;;;;;5088984;28;19958;-40
2022/11/03 08:21:29;;;;;;;;;;;;;;;;;;5088974;28;19904;-39
2022/11/03 08:23:55;;;;;;;;;;;;;;;;;;5082592;28;19907;-40
2022/11/03 08:26:21;;;;;;;;;;;;;;;;;;5059030;28;19942;-39
2022/11/03 08:28:47;;;;;;;;;;;;;;;;;;5059079;28;19916;-39
2022/11/03 08:31:14;;;;;;;;;;;;;;;;;;5041561;28;20018;-40
2022/11/03 08:33:40;;;;;;;;;;;;;;;;;;5059774;28;19912;-39
2022/11/03 08:36:07;;;;;;;;;;;;;;;;;;5059619;28;19918;-39
2022/11/03 08:38:33;;;;;;;;;;;;;;;;;;5086640;28;19912;-39
2022/11/03 08:40:59;;;;;;;;;;;;;;;;;;5090294;28;19911;-39
2022/11/03 08:43:25;;;;;;;;;;;;;;;;;;5088275;28;19927;-39
2022/11/03 08:45:52;;;;;;;2.43;1.10;;;;;;;;;;5087260;28;20416;-39
2022/11/03 08:48:22;;;;;;;1.67;1.00;;;;;;;;;;5076835;28;20029;-39
2022/11/03 08:50:53;;;;;;;2.25;0.93;;;;;;;;;;5088154;28;20098;-39
2022/11/03 08:53:19;;;;;;;2.38;1.23;;;;;;;;;;5061972;28;20407;-39
2022/11/03 08:55:45;;;;;;;;;;;;;;;;;;5068458;28;20032;-40
2022/11/03 08:58:11;;;;;;;;;;;;;;;;;;5077317;28;19931;-40
2022/11/03 09:00:37;;;;;;;;;;;;;;;;;;5077514;28;20411;-40
2022/11/03 09:03:03;;;;;;;;;;;;;;;;;;5086262;28;19916;-40
2022/11/03 09:05:30;;;;;;;;;;;;;;;;;;5076355;28;19916;-40
2022/11/03 09:07:56;;;;;;;;;;;;;;;;;;5088235;28;19904;-40
2022/11/03 09:10:21;;;;;;;;;;;;;;;;;;5074730;28;20383;-39
2022/11/03 09:12:48;;;;;;;;;;;;;;;;;;5077382;28;19920;-40
2022/11/03 09:15:14;;;;;;;;;;;;;;;;;;5075198;28;19939;-40
2022/11/03 09:17:40;;;;;;;;;;;;;;;;;;5070217;28;19959;-40
2022/11/03 09:20:06;;;;;;;;;;;;;;;;;;5071751;28;19959;-40
2022/11/03 09:22:32;;;;;;;;;;;;;;;;;;5091933;28;19912;-40
2022/11/03 09:24:58;;;;;;;;;;;;;;;;;;5084420;28;20411;-40
2022/11/03 09:27:24;;;;;;;;;;;;;;;;;;5092273;28;19915;-40
2022/11/03 09:29:51;;;;;;;;;;;;;;;;;;5076451;28;19978;-40
2022/11/03 09:32:18;;;;;;;;;;;;;;;;;;5080496;28;19999;-40
2022/11/03 09:34:44;;;;;;;;;;;;;;;;;;5066890;28;20001;-40
2022/11/03 09:37:09;;;;;;;;;;;;;;;;;;5081099;28;20906;-40
2022/11/03 09:39:35;;;;;;;;;;;;;;;;;;5080780;28;19962;-40
2022/11/03 09:42:03;;;;;;;;;;;;;;;;;;5072519;28;20303;-39
2022/11/03 09:44:28;;;;;;;;;;;;;;;;;;5069193;28;19919;-40
2022/11/03 09:46:54;;;;;;;;;;;;;;;;;;5091894;28;19907;-40
2022/11/03 09:49:20;;;;;;;;;;;;;;;;;;5107689;28;19904;-40
2022/11/03 09:51:46;;;;;;;;;;;;;;;;;;5087923;28;19908;-40
2022/11/03 09:54:14;;;;;;;;;;;;;;;;;;5068134;28;20372;-40
2022/11/03 09:56:40;;;;;;;;;;;;;;;;;;5068951;28;20142;-40
2022/11/03 09:59:06;;;;;;;;;;;;;;;;;;5077386;28;19990;-40
2022/11/03 10:01:32;;;;;;;;;;;;;;;;;;5087865;28;19904;-40
2022/11/03 10:03:58;;;;;;;;;;;;;;;;;;5098161;28;20116;-40
2022/11/03 10:06:24;;;;;;;;;;;;;;;;;;5066368;28;19908;-40
2022/11/03 10:08:50;;;;;;;;;;;;;;;;;;5067338;28;19919;-40
2022/11/03 10:11:16;;;;;;;;;;;;;;;;;;5080474;28;19908;-40
2022/11/03 10:13:42;;;;;;;;;;;;;;;;;;5085055;28;19915;-40
2022/11/03 10:16:08;;;;;;;;;;;;;;;;;;5069718;28;19916;-40
2022/11/03 10:18:34;;;;;;;;;;;;;;;;;;5073538;28;20448;-40
2022/11/03 10:21:00;;;;;;;;;;;;;;;;;;5085542;28;19947;-40
2022/11/03 10:23:26;;;;;;;;;;;;;;;;;;5072175;28;19995;-40
2022/11/03 10:25:51;;;;;;;;;;;;;;;;;;5066124;28;19908;-40
2022/11/03 10:28:17;;;;;;;;;;;;;;;;;;5079071;28;19912;-40
2022/11/03 10:30:43;;;;;;;;;;;;;;;;;;5096755;28;19925;-38
2022/11/03 10:33:09;;;;;;;;;;;;;;;;;;5075755;28;19904;-38
2022/11/03 10:35:35;;;;;;;;;;;;;;;;;;5066235;28;19954;-38
2022/11/03 10:38:01;;;;;;;;;;;;;;;;;;5066563;28;19916;-38
2022/11/03 10:40:27;;;;;;;;;;;;;;;;;;5068211;28;19993;-38
2022/11/03 10:42:53;;;;;;;;;;;;;;;;;;5075854;28;19912;-38
2022/11/03 10:45:20;;;;;;;;;;;;;;;;;;5086088;28;20053;-38
2022/11/03 10:47:46;;;;;;;;;;;;;;;;;;5087070;28;19904;-38
2022/11/03 10:50:13;;;;;;;;;;;;;;;;;;5068768;28;19913;-38
2022/11/03 10:52:39;;;;;;;;;;;;;;;;;;5068270;28;19909;-38
2022/11/03 10:55:05;;;;;;;;;;;;;;;;;;5073764;28;19920;-38
2022/11/03 10:57:31;;;;;;;;;;;;;;;;;;5065883;28;19955;-38
2022/11/03 10:59:57;;;;;;;;;;;;;;;;;;5066146;28;20346;-38
2022/11/03 11:02:23;;;;;;;;;;;;;;;;;;5084621;28;19943;-38
2022/11/03 11:04:49;;;;;;;;;;;;;;;;;;5068183;28;19954;-38
2022/11/03 11:07:15;;;;;;;;;;;;;;;;;;5068244;28;19958;-38
2022/11/03 11:09:41;;;;;;;;;;;;;;;;;;5066310;28;19997;-38
2022/11/03 11:12:07;;;;;;;;;;;;;;;;;;5070600;28;19904;-38
2022/11/03 11:14:37;;;;;;;;;;;;;;;;;;5066657;28;19943;-38
2022/11/03 11:17:03;;;;;;;;;;;;;;;;;;5074702;28;19912;-38
2022/11/03 11:19:29;;;;;;;;;;;;;;;;;;5085193;28;19966;-38
2022/11/03 11:21:55;;;;;;;;;;;;;;;;;;5080264;28;19904;-40
2022/11/03 11:24:21;;;;;;;;;;;;;;;;;;5083042;28;19908;-40
2022/11/03 11:26:49;;;;;;;;;;;;;;;;;;5077969;28;19954;-40
2022/11/03 11:29:15;;;;;;;;;;;;;;;;;;5069435;28;19909;-40
2022/11/03 11:31:41;;;;;;;;;;;;;;;;;;5077141;28;20179;-40
2022/11/03 11:34:07;;;;;;;;;;;;;;;;;;5082604;28;19904;-40
2022/11/03 11:36:33;;;;;;;;;;;;;;;;;;5092703;28;19924;-40
2022/11/03 11:38:59;;;;;;;;;;;;;;;;;;5080623;28;19912;-40
2022/11/03 11:41:25;;;;;;;;;;;;;;;;;;5075097;28;19915;-40
2022/11/03 11:43:51;;;;;;;;;;;;;;;;;;5076872;28;19908;-40
2022/11/03 11:46:17;;;;;;;;;;;;;;;;;;5078312;28;20441;-40
2022/11/03 11:48:43;;;;;;;;;;;;;;;;;;5078630;28;19903;-40
2022/11/03 11:51:10;;;;;;;;;;;;;;;;;;5079360;28;20003;-40
2022/11/03 11:53:36;;;;;;;;;;;;;;;;;;5078762;28;19908;-40
2022/11/03 11:56:02;;;;;;;;;;;;;;;;;;5088819;28;19927;-40
2022/11/03 11:58:28;;;;;;;;;;;;;;;;;;5085773;28;20007;-40
2022/11/03 12:00:54;;;;;;;;;;;;;;;;;;5082257;28;20002;-40
2022/11/03 12:03:20;;;;;;;;;;;;;;;;;;5086093;28;19916;-40
2022/11/03 12:05:45;;;;;;;;;;;;;;;;;;5085164;28;19914;-40
2022/11/03 12:08:11;;;;;;;;;;;;;;;;;;5088280;28;19995;-40
2022/11/03 12:10:37;;;;;;;;;;;;;;;;;;5086436;28;19907;-40
2022/11/03 12:13:03;;;;;;;;;;;;;;;;;;5072535;28;19909;-40
2022/11/03 12:15:29;;;;;;;;;;;;;;;;;;5069299;28;19963;-40
2022/11/03 12:17:55;;;;;;;;;;;;;;;;;;5069552;28;19962;-40
2022/11/03 12:20:21;;;;;;;;;;;;;;;;;;5070998;28;19908;-40
2022/11/03 12:22:47;;;;;;;;;;;;;;;;;;5074985;28;19977;-40
2022/11/03 12:25:13;;;;;;;;;;;;;;;;;;5073068;28;19918;-40
2022/11/03 12:27:40;;;;;;;;;;;;;;;;;;5076717;28;19912;-40
2022/11/03 12:30:07;;;;;;;;;;;;;;;;;;5088803;28;20276;-40
2022/11/03 12:32:33;;;;;;;;;;;;;;;;;;5084702;28;19915;-40
2022/11/03 12:34:59;;;;;;;;;;;;;;;;;;5084283;28;19911;-40
2022/11/03 12:37:25;;;;;;;;;;;;;;;;;;5073137;28;19992;-40
2022/11/03 12:39:51;;;;;;;;;;;;;;;;;;5069877;28;19912;-40
2022/11/03 12:42:18;;;;;;;;;;;;;;;;;;5068493;28;20022;-40
2022/11/03 12:44:45;;;;;;;;;;;;;;;;;;5068360;28;19909;-40
2022/11/03 12:47:11;;;;;;;;;;;;;;;;;;5068066;28;20328;-40
2022/11/03 12:49:37;;;;;;;;;;;;;;;;;;5067996;28;20032;-40
2022/11/03 12:52:05;;;;;;;;;;;;;;;;;;5075811;28;19908;-40
2022/11/03 12:54:32;;;;;;;;;;;;;;;;;;5086269;28;19910;-40
2022/11/03 12:56:58;;;;;;;;;;;;;;;;;;5068195;28;19966;-40
2022/11/03 12:59:24;;;;;;;;;;;;;;;;;;5067552;28;19912;-40
2022/11/03 13:01:50;;;;;;;;;;;;;;;;;;5068928;28;20418;-40
2022/11/03 13:04:16;;;;;;;;;;;;;;;;;;5067952;28;19913;-40
2022/11/03 13:06:42;;;;;;;;;;;;;;;;;;5067973;28;19912;-40
2022/11/03 13:09:08;;;;;;;;;;;;;;;;;;5067710;28;20448;-40
2022/11/03 13:14:18;;;;;;;;;;;;;;;;;;5075855;28;19965;-40
2022/11/03 13:16:44;;;;;;;;;;;;;;;;;;5087225;28;19954;-40
2022/11/03 13:19:10;;;;;;;;;;;;;;;;;;5087612;28;19915;-39
2022/11/03 13:21:36;;;;;;;;;;;;;;;;;;5087693;28;19904;-40
2022/11/03 13:24:02;;;;;;;;;;;;;;;;;;5080865;28;19939;-40
2022/11/03 13:26:28;;;;;;;;;;;;;;;;;;5066881;28;19916;-40
2022/11/03 13:28:54;;;;;;;;;;;;;;;;;;5067321;28;20637;-40
2022/11/03 13:31:20;;;;;;;;;;;;;;;;;;5075859;28;19911;-40
2022/11/03 13:33:46;;;;;;;;;;;;;;;;;;5077771;28;19927;-40
2022/11/03 13:36:12;;;;;;;;;;;;;;;;;;5076537;28;20408;-40
2022/11/03 13:38:39;;;;;;;;;;;;;;;;;;5086690;28;19923;-40
2022/11/03 13:41:05;;;;;;;;;;;;;;;;;;5086901;28;19998;-40
2022/11/03 13:43:31;;;;;;;;;;;;;;;;;;5086922;28;19988;-39
2022/11/03 13:46:01;;;;;;;;;;;;;;;;;;5080209;28;19919;-40
2022/11/03 13:48:27;;;;;;;;;;;;;;;;;;5087020;28;19982;-40
2022/11/03 13:50:53;;;;;;;;;;;;;;;;;;5071063;28;19908;-40
2022/11/03 13:53:19;;;;;;;;;;;;;;;;;;5066904;28;19916;-40
2022/11/03 13:55:45;;;;;;;;;;;;;;;;;;5066068;28;19908;-40
2022/11/03 13:58:11;;;;;;;;;;;;;;;;;;5086961;28;19912;-40
2022/11/03 14:00:37;;;;;;;;;;;;;;;;;;5087214;28;19904;-40
2022/11/03 14:03:03;;;;;;;;;;;;;;;;;;5087245;28;19935;-40
2022/11/03 14:05:29;;;;;;;;;;;;;;;;;;5087577;28;19912;-40
2022/11/03 14:07:55;;;;;;;;;;;;;;;;;;5085508;28;19912;-40
2022/11/03 14:10:21;;;;;;;;;;;;;;;;;;5086473;28;20305;-40
2022/11/03 14:12:47;;;;;;;;;;;;;;;;;;5071888;28;19947;-40
2022/11/03 14:15:13;;;;;;;;;;;;;;;;;;5067322;28;19939;-40
2022/11/03 14:17:39;;;;;;;;;;;;;;;;;;5067154;28;19954;-40
2022/11/03 14:20:06;;;;;;;;;;;;;;;;;;5067335;28;19909;-40
2022/11/03 14:22:32;;;;;;;;;;;;;;;;;;5072438;28;19915;-40
2022/11/03 14:24:59;;;;;;;;;;;;;;;;;;5087284;28;19950;-40
2022/11/03 14:27:25;;;;;;;;;;;;;;;;;;5087425;28;19986;-40
2022/11/03 14:29:51;;;;;;;;;;;;;;;;;;5087838;28;20505;-40
2022/11/03 14:32:17;;;;;;;;;;;;;;;;;;5072246;28;19963;-40
2022/11/03 14:34:43;;;;;;;;;;;;;;;;;;5067397;28;19943;-40
2022/11/03 14:37:09;;;;;;;;;;;;;;;;;;5066998;28;19904;-40
2022/11/03 14:39:36;;;;;;;;;;;;;;;;;;5067001;28;19920;-40
2022/11/03 14:42:02;;;;;;;;;;;;;;;;;;5067223;28;19908;-40
2022/11/03 14:44:28;;;;;;;;;;;;;;;;;;5067307;28;19904;-40
2022/11/03 14:46:54;;;;;;;;;;;;;;;;;;5067049;28;19905;-40
2022/11/03 14:49:19;;;;;;;;;;;;;;;;;;5067822;28;19904;-40
2022/11/03 14:51:46;;;;;;;;;;;;;;;;;;5066528;28;19962;-40
2022/11/03 14:54:12;;;;;;;;;;;;;;;;;;5066552;28;19912;-40
2022/11/03 14:56:37;;;;;;;;;;;;;;;;;;5068029;28;19923;-40
2022/11/03 14:59:03;;;;;;;;;;;;;;;;;;5083718;28;19907;-39
2022/11/03 15:01:29;;;;;;;;;;;;;;;;;;5111352;28;19904;-40
2022/11/03 15:03:55;;;;;;;;;;;;;;;;;;5092537;28;19961;-40
2022/11/03 15:06:21;;;;;;;;;;;;;;;;;;5089366;28;20279;-40
2022/11/03 15:08:47;;;;;;;;;;;;;;;;;;5091210;28;19904;-40
2022/11/03 15:11:14;;;;;;;;;;;;;;;;;;5087172;28;19954;-40
2022/11/03 15:13:39;;;;;;;;;;;;;;;;;;5073663;28;19913;-40
2022/11/03 15:16:06;;;;;;;;;;;;;;;;;;5070274;28;19939;-40
2022/11/03 15:18:32;;;;;;;;;;;;;;;;;;5076060;28;20319;-40
2022/11/03 15:20:58;;;;;;;;;;;;;;;;;;5090307;28;19995;-40
2022/11/03 15:23:24;;;;;;;;;;;;;;;;;;5090253;28;20501;-40
2022/11/03 15:25:50;;;;;;;;;;;;;;;;;;5090834;28;19994;-40
2022/11/03 15:28:16;;;;;;;;;;;;;;;;;;5090542;28;20303;-40
2022/11/03 15:30:42;;;;;;;;;;;;;;;;;;5090235;28;19908;-40
2022/11/03 15:33:08;;;;;;;;;;;;;;;;;;5090449;28;20450;-40
2022/11/03 15:35:34;;;;;;;;;;;;;;;;;;5090231;28;20378;-40
2022/11/03 15:38:00;;;;;;;;;;;;;;;;;;5107079;28;19912;-40
2022/11/03 15:40:26;;;;;;;;;;;;;;;;;;5089363;28;19912;-40
2022/11/03 15:42:52;;;;;;;;;;;;;;;;;;5082343;28;20383;-40
2022/11/03 15:45:18;;;;;;;;;;;;;;;;;;5109968;28;19904;-40
2022/11/03 15:47:44;;;;;;;;;;;;;;;;;;5087333;28;19954;-41
2022/11/03 15:50:10;;;;;;;;;;;;;;;;;;5069828;28;19936;-40
2022/11/03 15:52:36;;;;;;;;;;;;;;;;;;5069601;28;19981;-40
2022/11/03 15:55:02;;;;;;;;;;;;;;;;;;5069608;28;19905;-40
2022/11/03 15:57:27;;;;;;;;;;;;;;;;;;5069226;28;19911;-40
2022/11/03 15:59:53;;;;;;;;;;;;;;;;;;5069707;28;19998;-40
2022/11/03 16:02:19;;;;;;;;;;;;;;;;;;5069856;28;19971;-40
2022/11/03 16:04:45;;;;;;;;;;;;;;;;;;5069315;28;19904;-40
2022/11/03 16:07:11;;;;;;;;;;;;;;;;;;5068705;28;19920;-40
2022/11/03 16:09:37;;;;;;;;;;;;;;;;;;5069379;28;20404;-40
2022/11/03 16:12:03;;;;;;;;;;;;;;;;;;5069211;28;19904;-40
2022/11/03 16:14:29;;;;;;;;;;;;;;;;;;5069328;28;19915;-40
2022/11/03 16:16:56;;;;;;;;;;;;;;;;;;5069003;28;19905;-40
2022/11/03 16:19:22;;;;;;;;;;;;;;;;;;5069198;28;20514;-40
2022/11/03 16:21:48;;;;;;;;;;;;;;;;;;5069464;28;20387;-40
2022/11/03 16:24:14;;;;;;;;;;;;;;;;;;5069150;28;20388;-40
2022/11/03 16:26:40;;;;;;;;;;;;;;;;;;5068980;28;19911;-40
2022/11/03 16:29:06;;;;;;;;;;;;;;;;;;5074864;28;19915;-40
2022/11/03 16:31:32;;;;;;;;;;;;;;;;;;5072866;28;19915;-40
2022/11/03 16:33:58;;;;;;;;;;;;;;;;;;5070703;28;19909;-40
2022/11/03 16:36:24;;;;;;;;;;;;;;;;;;5073503;28;19908;-40
2022/11/03 16:38:50;;;;;;;;;;;;;;;;;;5090863;28;19951;-40
2022/11/03 16:41:17;;;;;;;;;;;;;;;;;;5109842;28;19923;-40
2022/11/03 16:43:43;;;;;;;;;;;;;;;;;;5091492;28;19912;-40
2022/11/03 16:46:09;;;;;;;;;;;;;;;;;;5088421;28;19930;-40
2022/11/03 16:48:35;;;;;;;;;;;;;;;;;;5088439;28;19904;-41
2022/11/03 16:51:01;;;;;;;;;;;;;;;;;;5083601;28;19918;-40
2022/11/03 16:53:27;;;;;;;;;;;;;;;;;;5070867;28;19908;-40
2022/11/03 16:55:53;;;;;;;;;;;;;;;;;;5068317;28;19943;-41
2022/11/03 16:58:19;;;;;;;;;;;;;;;;;;5068938;28;19931;-41
2022/11/03 17:00:45;;;;;;;;;;;;;;;;;;5070095;28;19940;-41
2022/11/03 17:03:11;;;;;;;;;;;;;;;;;;5068014;28;19966;-41
2022/11/03 17:05:37;;;;;;;;;;;;;;;;;;5067954;28;19912;-41
2022/11/03 17:08:03;;;;;;;;;;;;;;;;;;5070573;28;20322;-41
2022/11/03 17:10:30;;;;;;;;;;;;;;;;;;5087506;28;20007;-41
2022/11/03 17:12:56;;;;;;;;;;;;;;;;;;5088530;28;19908;-41
2022/11/03 17:15:23;;;;;;;;;;;;;;;;;;5088191;28;19923;-41
2022/11/03 17:17:49;;;;;;;;;;;;;;;;;;5088780;28;19912;-41
2022/11/03 17:20:15;;;;;;;;;;;;;;;;;;5085407;28;19998;-41
2022/11/03 17:22:40;;;;;;;;;;;;;;;;;;5087946;28;19904;-40
2022/11/03 17:25:08;;;;;;;;;;;;;;;;;;5086789;28;19907;-40
2022/11/03 17:27:34;;;;;;;;;;;;;;;;;;5087983;28;19911;-40
2022/11/03 17:30:00;;;;;;;;;;;;;;;;;;5088206;28;20448;-41
2022/11/03 17:32:26;;;;;;;;;;;;;;;;;;5074395;28;19909;-40
2022/11/03 17:34:51;;;;;;;;;;;;;;;;;;5068424;28;19909;-40
2022/11/03 17:37:17;;;;;;;;;;;;;;;;;;5081769;28;19916;-40
2022/11/03 17:39:43;;;;;;;;;;;;;;;;;;5076676;28;19916;-40
2022/11/03 17:42:09;;;;;;;;;;;;;;;;;;5064738;28;20039;-40
2022/11/03 17:44:36;;;;;;;;;;;;;;;;;;5046879;28;19931;-40
2022/11/03 17:47:02;;;;;;;;;;;;;;;;;;5053752;28;19920;-41
2022/11/03 17:49:28;;;;;;;;;;;;;;;;;;5066706;28;19908;-40
2022/11/03 17:51:54;;;;;;;;;;;;;;;;;;5085237;28;19923;-41
2022/11/03 17:54:20;;;;;;;;;;;;;;;;;;5081950;28;19970;-41
2022/11/03 17:56:47;;;;;;;;;;;;;;;;;;5069974;28;20302;-41
2022/11/03 17:59:14;;;;;;;;;;;;;;;;;;5084983;28;20006;-41
2022/11/03 18:01:40;;;;;;;;;;;;;;;;;;5084520;28;20392;-41
2022/11/03 18:04:06;;;;;;;;;;;;;;;;;;5084815;28;19912;-40
2022/11/03 18:06:33;;;;;;;;;;;;;;;;;;5081575;28;20387;-40
2022/11/03 18:08:59;;;;;;;;;;;;;;;;;;5070531;28;20014;-41
2022/11/03 18:14:09;;;;;;;;;;;;;;;;;;5074240;28;20279;-41
2022/11/03 18:16:35;;;;;;;;;;;;;;;;;;5077725;28;19908;-40
2022/11/03 18:19:01;;;;;;;;;;;;;;;;;;5078607;28;19916;-41
2022/11/03 18:21:27;;;;;;;;;;;;;;;;;;5078226;28;19919;-40
2022/11/03 18:23:54;;;;;;;;;;;;;;;;;;5083177;28;19916;-40
2022/11/03 18:26:20;;;;;;;;;;;;;;;;;;5079607;28;20280;-40
2022/11/03 18:28:48;;;;;;;;;;;;;;;;;;5075132;28;19974;-40
2022/11/03 18:31:13;;;;;;;;;;;;;;;;;;5068813;28;19911;-40
2022/11/03 18:33:39;;;;;;;;;;;;;;;;;;5061919;28;19912;-40
2022/11/03 18:36:05;;;;;;;;;;;;;;;;;;5085343;28;19908;-40
2022/11/03 18:38:31;;;;;;;;;;;;;;;;;;5083339;28;19939;-40
2022/11/03 18:40:57;;;;;;;;;;;;;;;;;;5081854;28;19912;-40
2022/11/03 18:43:24;;;;;;;;;;;;;;;;;;5088662;28;19904;-40
2022/11/03 18:45:50;;;;;;;;;;;;;;;;;;5089413;28;19962;-40
2022/11/03 18:48:19;;;;;;;;;;;;;;;;;;5079691;28;20112;-40
2022/11/03 18:50:45;;;;;;;;;;;;;;;;;;5100918;28;19914;-40
2022/11/03 18:53:12;;;;;;;;;;;;;;;;;;5105690;28;19987;-40
2022/11/03 18:55:39;;;;;;;;;;;;;;;;;;5083626;28;19916;-40
2022/11/03 18:58:05;;;;;;;;;;;;;;;;;;5083075;28;20436;-40
2022/11/03 19:00:32;;;;;;;;;;;;;;;;;;5072220;28;19908;-40
2022/11/03 19:02:58;;;;;;;;;;;;;;;;;;5081624;28;20310;-40
2022/11/03 19:05:24;;;;;;;;;;;;;;;;;;5076639;28;19908;-40
2022/11/03 19:07:51;;;;;;;;;;;;;;;;;;5080565;28;19947;-40
2022/11/03 19:10:17;;;;;;;;;;;;;;;;;;5084942;28;19914;-40
2022/11/03 19:12:43;;;;;;;;;;;;;;;;;;5066471;28;19915;-40
2022/11/03 19:15:09;;;;;;;;;;;;;;;;;;5090182;28;19908;-40
2022/11/03 19:17:35;;;;;;;;;;;;;;;;;;5080375;28;20050;-40
2022/11/03 19:20:01;;;;;;;;;;;;;;;;;;5078885;28;19916;-40
2022/11/03 19:22:27;;;;;;;;;;;;;;;;;;5077820;28;20291;-40
2022/11/03 19:24:52;;;;;;;;;;;;;;;;;;5084074;28;19915;-40
2022/11/03 19:27:18;;;;;;;;;;;;;;;;;;5091590;28;19908;-40
2022/11/03 19:29:44;;;;;;;;;;;;;;;;;;5078633;28;19912;-40
2022/11/03 19:32:10;;;;;;;;;;;;;;;;;;5088845;28;20408;-40
2022/11/03 19:34:37;;;;;;;;;;;;;;;;;;5082775;28;19991;-40
2022/11/03 19:37:04;;;;;;;;;;;;;;;;;;5080369;28;20054;-40
2022/11/03 19:39:30;;;;;;;;;;;;;;;;;;5070995;28;19908;-40
2022/11/03 19:44:41;;;;;;;;;;;;;;;;;;5070188;28;19927;-40
2022/11/03 19:47:07;;;;;;;;;;;;;;;;;;5061685;28;19931;-40
2022/11/03 19:49:32;;;;;;;;;;;;;;;;;;5068469;28;19908;-40
2022/11/03 19:51:59;;;;;;;;;;;;;;;;;;5067980;28;19923;-40
2022/11/03 19:54:25;;;;;;;;;;;;;;;;;;5067255;28;19913;-40
2022/11/03 19:56:51;;;;;;;;;;;;;;;;;;5074122;28;19962;-40
2022/11/03 19:59:17;;;;;;;;;;;;;;;;;;5088353;28;19907;-40
2022/11/03 20:01:43;;;;;;;;;;;;;;;;;;5082071;28;20307;-40
2022/11/03 20:04:09;;;;;;;;;;;;;;;;;;5073292;28;19999;-40
2022/11/03 20:06:35;;;;;;;;;;;;;;;;;;5073220;28;19908;-40
2022/11/03 20:09:05;;;;;;;;;;;;;;;;;;5079238;28;19962;-40
2022/11/03 20:11:30;;;;;;;;;;;;;;;;;;5069869;28;19910;-57
2022/11/03 20:13:56;;;;;;;;;;;;;;;;;;5073115;28;20375;-57
2022/11/03 20:16:22;;;;;;;;;;;;;;;;;;5085233;28;19914;-58
2022/11/03 20:18:48;;;;;;;;;;;;;;;;;;5078789;28;20303;-59
2022/11/03 20:21:15;;;;;;;;;;;;;;;;;;5069927;28;19908;-58
2022/11/03 20:23:41;;;;;;;;;;;;;;;;;;5070583;28;19907;-58
2022/11/03 20:26:07;;;;;;;;;;;;;;;;;;5078703;28;19916;-57
2022/11/03 20:28:33;;;;;;;;;;;;;;;;;;5084940;28;19912;-57
2022/11/03 20:31:02;;;;;;;;;;;;;;;;;;5089966;28;20355;-55
2022/11/03 20:33:28;;;;;;;;;;;;;;;;;;5089475;28;20293;-57
2022/11/03 20:35:54;;;;;;;;;;;;;;;;;;5081830;28;19926;-57
2022/11/03 20:38:20;;;;;;;;;;;;;;;;;;5088919;28;19958;-57
2022/11/03 20:40:46;;;;;;;;;;;;;;;;;;5071397;28;20351;-57
2022/11/03 20:43:12;;;;;;;;;;;;;;;;;;5089833;28;19910;-57
2022/11/03 20:45:39;;;;;;;;;;;;;;;;;;5069408;28;19998;-57
2022/11/03 20:48:04;;;;;;;;;;;;;;;;;;5074596;28;20372;-57
2022/11/03 20:50:30;;;;;;;;;;;;;;;;;;5069036;28;19951;-57
2022/11/03 20:52:56;;;;;;;;;;;;;;;;;;5077155;28;19915;-58
2022/11/03 20:55:22;;;;;;;;;;;;;;;;;;5088985;28;20432;-57
2022/11/03 20:57:48;;;;;;;;;;;;;;;;;;5089574;28;19961;-57
2022/11/03 21:00:14;;;;;;;;;;;;;;;;;;5089306;28;19915;-57
2022/11/03 21:02:40;;;;;;;;;;;;;;;;;;5087692;28;19911;-57
2022/11/03 21:05:06;;;;;;;;;;;;;;;;;;5088139;28;19915;-58
2022/11/03 21:07:34;;;;;;;;;;;;;;;;;;5088935;28;19911;-57
2022/11/03 21:10:00;;;;;;;;;;;;;;;;;;5076193;28;19908;-58
2022/11/03 21:12:25;;;;;;;;;;;;;;;;;;5089030;28;19904;-58
2022/11/03 21:20:20;;;;;;;;;;;;;;;;;;5076968;28;20379;-56
2022/11/03 21:22:46;;;;;;;;;;;;;;;;;;5083701;28;19908;-57
2022/11/03 21:25:12;;;;;;;;;;;;;;;;;;5088790;28;19911;-57
2022/11/03 21:27:38;;;;;;;;;;;;;;;;;;5088485;28;19950;-57
2022/11/03 21:30:04;;;;;;;;;;;;;;;;;;5078444;28;19965;-57
2022/11/03 21:32:30;;;;;;;;;;;;;;;;;;5068204;28;19904;-57
2022/11/03 21:34:56;;;;;;;;;;;;;;;;;;5050625;28;19930;-56
2022/11/03 21:37:22;;;;;;;;;;;;;;;;;;5067843;28;19939;-57
2022/11/03 21:39:48;;;;;;;;;;;;;;;;;;5087625;28;19999;-57
2022/11/03 21:44:58;;;;;;;;;;;;;;;;;;5084321;28;20390;-56
2022/11/03 21:47:24;;;;;;;;;;;;;;;;;;5067920;28;19905;-57
2022/11/03 21:49:50;;;;;;;;;;;;;;;;;;5068408;28;19904;-56
2022/11/03 21:52:16;;;;;;;;;;;;;;;;;;5068244;28;19944;-56
2022/11/03 21:54:42;;;;;;;;;;;;;;;;;;5067662;28;20295;-57
2022/11/03 21:57:08;;;;;;;;;;;;;;;;;;5067971;28;19912;-56